createdAt,value
2022-09-05T00:00:18.545Z,99.90
2022-09-05T00:03:06.489Z,99.90
2022-09-05T00:06:04.631Z,99.90
2022-09-05T00:08:50.447Z,99.90
2022-09-05T00:11:55.816Z,99.90
2022-09-05T00:15:14.757Z,99.90
2022-09-05T00:17:16.551Z,99.90
2022-09-05T00:24:35.591Z,99.90
2022-09-05T00:24:37.525Z,99.90
2022-09-05T00:25:59.050Z,99.90
2022-09-05T00:28:40.908Z,99.90
2022-09-05T00:31:53.775Z,99.90
2022-09-05T00:34:47.782Z,99.90
2022-09-05T00:37:31.815Z,99.90
2022-09-05T00:40:18.697Z,99.90
2022-09-05T00:43:00.740Z,99.90
2022-09-05T00:45:42.842Z,99.90
2022-09-05T00:49:00.190Z,99.90
2022-09-05T00:51:35.799Z,99.90
2022-09-05T00:54:40.955Z,99.90
2022-09-05T00:57:27.542Z,99.90
2022-09-05T01:00:23.862Z,99.90
2022-09-05T01:03:28.042Z,99.90
2022-09-05T01:06:13.558Z,99.90
2022-09-05T01:09:07.550Z,99.90
2022-09-05T01:11:54.918Z,99.90
2022-09-05T01:14:29.468Z,99.90
2022-09-05T01:17:17.869Z,99.90
2022-09-05T01:20:29.884Z,99.90
2022-09-05T01:23:08.593Z,99.90
2022-09-05T01:25:55.306Z,99.90
2022-09-05T01:29:16.757Z,99.90
2022-09-05T01:32:10.383Z,99.90
2022-09-05T01:35:17.054Z,99.90
2022-09-05T01:37:59.383Z,99.90
2022-09-05T01:41:17.993Z,99.90
2022-09-05T01:44:25.793Z,99.90
2022-09-05T01:47:09.701Z,99.90
2022-09-05T01:50:19.507Z,99.90
2022-09-05T01:53:26.131Z,99.90
2022-09-05T01:56:47.740Z,99.90
2022-09-05T01:59:46.052Z,99.90
2022-09-05T02:02:13.176Z,99.90
2022-09-05T02:05:13.048Z,99.90
2022-09-05T02:08:05.937Z,99.90
2022-09-05T02:10:52.101Z,99.90
2022-09-05T02:13:58.005Z,99.90
2022-09-05T02:16:45.042Z,99.90
2022-09-05T02:19:22.671Z,99.90
2022-09-05T02:22:01.983Z,99.90
2022-09-05T02:24:43.792Z,99.90
2022-09-05T02:28:05.199Z,99.90
2022-09-05T02:30:35.003Z,99.90
2022-09-05T02:33:21.402Z,99.90
2022-09-05T02:35:59.397Z,99.90
2022-09-05T02:41:49.927Z,99.90
2022-09-05T02:45:05.996Z,99.90
2022-09-05T02:45:18.028Z,99.90
2022-09-05T02:47:28.470Z,99.90
2022-09-05T02:55:08.413Z,99.90
2022-09-05T02:57:33.493Z,99.90
2022-09-05T02:58:06.388Z,99.90
2022-09-05T02:59:35.838Z,99.90
2022-09-05T03:02:26.425Z,99.90
2022-09-05T03:05:08.485Z,99.90
2022-09-05T03:08:10.709Z,99.90
2022-09-05T03:11:11.307Z,99.90
2022-09-05T03:13:59.402Z,99.90
2022-09-05T03:17:02.323Z,99.90
2022-09-05T03:19:54.264Z,99.90
2022-09-05T03:22:42.383Z,99.90
2022-09-05T03:25:40.889Z,99.90
2022-09-05T03:28:26.357Z,99.90
2022-09-05T03:34:31.100Z,99.90
2022-09-05T03:43:20.465Z,99.90
2022-09-05T03:45:56.056Z,99.90
2022-09-05T03:48:55.726Z,99.90
2022-09-05T03:57:04.183Z,99.90
2022-09-05T03:57:23.882Z,99.90
2022-09-05T03:58:55.271Z,99.90
2022-09-05T04:06:53.751Z,99.90
2022-09-05T04:08:26.022Z,99.90
2022-09-05T04:09:05.946Z,99.90
2022-09-05T04:11:52.637Z,99.90
2022-09-05T04:14:47.075Z,99.90
2022-09-05T04:17:31.324Z,99.90
2022-09-05T04:20:39.809Z,99.90
2022-09-05T04:23:26.152Z,99.90
2022-09-05T04:26:11.534Z,99.90
2022-09-05T04:29:02.778Z,99.90
2022-09-05T04:31:51.962Z,99.90
2022-09-05T04:35:19.399Z,99.90
2022-09-05T04:38:12.426Z,99.90
2022-09-05T04:41:02.739Z,99.90
2022-09-05T04:46:48.389Z,99.90
2022-09-05T05:06:04.257Z,99.90
2022-09-05T05:06:12.587Z,99.90
2022-09-05T05:07:16.771Z,99.90
2022-09-05T05:10:58.774Z,99.90
2022-09-05T05:17:57.332Z,99.90
2022-09-05T05:18:00.729Z,99.90
2022-09-05T05:18:48.290Z,99.90
2022-09-05T05:21:25.283Z,99.90
2022-09-05T05:23:57.699Z,99.90
2022-09-05T05:26:30.089Z,99.90
2022-09-05T05:29:19.691Z,99.90
2022-09-05T05:31:53.152Z,99.90
2022-09-05T05:37:46.038Z,99.90
2022-09-05T05:40:15.671Z,99.90
2022-09-05T05:42:44.647Z,99.90
2022-09-05T05:45:23.574Z,99.90
2022-09-05T05:48:22.469Z,99.90
2022-09-05T05:51:14.752Z,99.90
2022-09-05T05:54:00.558Z,99.90
2022-09-05T05:57:01.593Z,99.90
2022-09-05T05:59:56.847Z,99.90
2022-09-05T06:03:28.758Z,99.90
2022-09-05T06:06:22.176Z,99.90
2022-09-05T06:14:48.343Z,99.90
2022-09-05T06:15:02.643Z,99.90
2022-09-05T06:15:50.037Z,99.90
2022-09-05T06:18:54.150Z,99.90
2022-09-05T06:22:11.351Z,99.90
2022-09-05T06:25:16.850Z,99.90
2022-09-05T06:28:19.158Z,99.90
2022-09-05T06:31:25.969Z,99.90
2022-09-05T06:34:04.630Z,99.90
2022-09-05T06:36:57.309Z,99.90
2022-09-05T06:40:00.274Z,99.90
2022-09-05T06:42:54.374Z,99.90
2022-09-05T06:45:44.701Z,99.90
2022-09-05T06:49:32.446Z,99.90
2022-09-05T06:52:27.670Z,99.90
2022-09-05T06:54:47.226Z,99.90
2022-09-05T06:58:03.064Z,99.90
2022-09-05T07:00:38.178Z,99.90
2022-09-05T07:03:24.700Z,99.90
2022-09-05T07:06:06.818Z,99.90
2022-09-05T07:08:44.463Z,99.90
2022-09-05T07:11:25.797Z,99.90
2022-09-05T07:14:24.679Z,99.90
2022-09-05T07:17:09.708Z,99.90
2022-09-05T07:19:56.358Z,99.90
2022-09-05T07:22:48.805Z,99.90
2022-09-05T07:25:31.556Z,99.90
2022-09-05T07:28:28.725Z,99.90
2022-09-05T07:31:10.922Z,99.90
2022-09-05T07:33:39.177Z,99.90
2022-09-05T07:36:15.904Z,99.90
2022-09-05T07:39:02.443Z,99.90
2022-09-05T07:41:44.133Z,99.90
2022-09-05T07:44:22.127Z,99.90
2022-09-05T07:47:09.193Z,99.90
2022-09-05T07:49:45.654Z,99.90
2022-09-05T07:56:47.305Z,99.90
2022-09-05T07:57:10.215Z,99.90
2022-09-05T07:58:20.662Z,99.90
2022-09-05T08:00:54.340Z,99.90
2022-09-05T08:03:30.157Z,99.90
2022-09-05T08:06:04.175Z,99.90
2022-09-05T08:09:21.472Z,99.90
2022-09-05T08:11:42.313Z,99.90
2022-09-05T08:14:45.073Z,99.90
2022-09-05T08:17:29.935Z,99.90
2022-09-05T08:20:11.174Z,99.90
2022-09-05T08:22:52.096Z,99.90
2022-09-05T08:25:57.295Z,99.90
2022-09-05T08:28:40.262Z,99.90
2022-09-05T08:31:21.469Z,99.90
2022-09-05T08:33:52.518Z,99.90
2022-09-05T08:36:45.706Z,99.90
2022-09-05T08:39:25.296Z,99.90
2022-09-05T08:42:07.695Z,99.90
2022-09-05T08:46:40.903Z,99.90
2022-09-05T08:48:27.846Z,99.90
2022-09-05T08:51:09.840Z,99.90
2022-09-05T08:54:07.766Z,99.90
2022-09-05T08:57:04.183Z,99.90
2022-09-05T09:00:19.231Z,99.90
2022-09-05T09:02:50.971Z,99.90
2022-09-05T09:06:13.482Z,99.90
2022-09-05T09:08:54.983Z,99.90
2022-09-05T09:11:46.833Z,99.90
2022-09-05T09:14:34.998Z,99.90
2022-09-05T09:17:25.961Z,99.90
2022-09-05T09:20:20.352Z,99.90
2022-09-05T09:23:02.199Z,99.90
2022-09-05T09:25:54.741Z,99.90
2022-09-05T09:28:49.986Z,99.90
2022-09-05T09:31:59.635Z,99.90
2022-09-05T09:34:47.178Z,99.90
2022-09-05T09:37:46.626Z,99.90
2022-09-05T09:40:52.248Z,99.90
2022-09-05T09:43:35.142Z,99.90
2022-09-05T09:46:21.436Z,99.90
2022-09-05T09:49:22.689Z,99.90
2022-09-05T09:52:20.689Z,99.90
2022-09-05T09:55:39.166Z,99.90
2022-09-05T09:59:06.434Z,99.90
2022-09-05T10:01:57.570Z,99.90
2022-09-05T10:10:46.165Z,99.90
2022-09-05T10:11:54.953Z,99.90
2022-09-05T10:15:23.725Z,99.90
2022-09-05T10:18:18.386Z,99.90
2022-09-05T10:21:15.507Z,99.90
2022-09-05T10:24:21.897Z,99.40
2022-09-05T10:27:25.132Z,98.20
2022-09-05T10:29:58.051Z,99.40
2022-09-05T10:35:04.766Z,97.90
2022-09-05T10:35:49.647Z,97.90
2022-09-05T10:38:24.148Z,96.20
2022-09-05T10:41:20.038Z,94.90
2022-09-05T10:43:55.645Z,94.00
2022-09-05T10:46:53.726Z,93.80
2022-09-05T10:49:33.027Z,92.80
2022-09-05T10:52:33.964Z,93.80
2022-09-05T10:55:16.988Z,91.50
2022-09-05T10:58:01.645Z,92.40
2022-09-05T11:02:21.457Z,91.50
2022-09-05T11:04:37.124Z,91.20
2022-09-05T11:08:04.489Z,90.10
2022-09-05T11:10:45.456Z,90.90
2022-09-05T11:13:31.830Z,88.50
2022-09-05T11:16:31.828Z,85.20
2022-09-05T11:19:05.818Z,86.30
2022-09-05T11:21:33.635Z,85.50
2022-09-05T11:24:13.482Z,84.10
2022-09-05T11:26:46.769Z,83.40
2022-09-05T11:29:55.110Z,84.90
2022-09-05T11:39:47.843Z,83.10
2022-09-05T11:39:48.892Z,81.70
2022-09-05T11:40:02.214Z,80.30
2022-09-05T11:42:27.855Z,79.60
2022-09-05T11:44:57.561Z,81.90
2022-09-05T11:47:52.785Z,79.70
2022-09-05T11:50:53.740Z,82.00
2022-09-05T11:54:18.691Z,78.50
2022-09-05T11:57:32.127Z,79.00
2022-09-05T12:00:31.301Z,78.40
2022-09-05T12:03:11.086Z,73.20
2022-09-05T12:06:07.950Z,76.80
2022-09-05T12:09:23.459Z,75.20
2022-09-05T12:12:38.925Z,72.70
2022-09-05T12:15:33.729Z,73.90
2022-09-05T12:18:19.120Z,75.80
2022-09-05T12:21:23.214Z,73.00
2022-09-05T12:25:15.312Z,73.80
2022-09-05T12:27:39.698Z,73.60
2022-09-05T12:30:14.509Z,74.40
2022-09-05T12:36:13.205Z,70.80
2022-09-05T12:40:55.969Z,70.90
2022-09-05T12:41:42.127Z,72.20
2022-09-05T12:42:14.838Z,70.10
2022-09-05T12:45:14.070Z,68.70
2022-09-05T12:48:09.731Z,70.20
2022-09-05T12:51:02.525Z,68.70
2022-09-05T12:54:04.965Z,68.50
2022-09-05T13:02:55.480Z,66.10
2022-09-05T13:03:14.679Z,65.30
2022-09-05T13:03:29.713Z,65.00
2022-09-05T13:06:10.155Z,65.70
2022-09-05T13:09:16.275Z,62.00
2022-09-05T13:14:59.973Z,62.10
2022-09-05T13:15:37.382Z,63.90
2022-09-05T13:18:20.384Z,63.10
2022-09-05T13:21:06.929Z,64.70
2022-09-05T13:23:48.774Z,65.00
2022-09-05T13:26:19.382Z,66.00
2022-09-05T13:29:08.396Z,65.60
2022-09-05T13:37:58.307Z,64.20
2022-09-05T13:38:02.866Z,61.90
2022-09-05T13:38:07.747Z,63.40
2022-09-05T13:40:49.406Z,62.90
2022-09-05T13:43:37.520Z,62.40
2022-09-05T13:46:16.221Z,60.40
2022-09-05T13:51:56.376Z,59.50
2022-09-05T13:54:41.209Z,59.30
2022-09-05T13:57:31.433Z,59.20
2022-09-05T14:00:27.869Z,57.60
2022-09-05T14:03:38.362Z,58.50
2022-09-05T14:06:47.326Z,57.80
2022-09-05T14:09:49.067Z,60.50
2022-09-05T14:13:01.289Z,57.50
2022-09-05T14:15:53.484Z,57.90
2022-09-05T14:19:04.002Z,57.30
2022-09-05T14:21:36.861Z,56.40
2022-09-05T14:24:27.796Z,56.50
2022-09-05T14:27:11.680Z,57.00
2022-09-05T14:29:45.817Z,56.50
2022-09-05T14:37:34.498Z,57.90
2022-09-05T14:37:41.495Z,56.50
2022-09-05T14:38:25.791Z,56.90
2022-09-05T14:41:16.708Z,56.30
2022-09-05T14:44:16.752Z,55.90
2022-09-05T14:47:35.379Z,57.90
2022-09-05T14:50:50.979Z,56.50
2022-09-05T15:01:19.629Z,56.00
2022-09-05T15:02:51.987Z,55.20
2022-09-05T15:02:52.184Z,57.00
2022-09-05T15:05:27.032Z,55.00
2022-09-05T15:08:16.305Z,55.00
2022-09-05T15:12:15.629Z,53.40
2022-09-05T15:13:56.247Z,55.70
2022-09-05T15:16:25.694Z,55.40
2022-09-05T15:18:55.431Z,53.40
2022-09-05T15:21:33.444Z,54.30
2022-09-05T15:24:13.631Z,57.10
2022-09-05T15:26:58.673Z,55.70
2022-09-05T15:29:35.495Z,54.60
2022-09-05T15:32:15.844Z,56.40
2022-09-05T15:34:45.115Z,56.40
2022-09-05T15:37:36.254Z,55.40
2022-09-05T15:40:24.088Z,57.20
2022-09-05T15:42:57.080Z,57.10
2022-09-05T15:45:38.450Z,55.70
2022-09-05T15:48:16.330Z,56.30
2022-09-05T15:50:54.678Z,56.10
2022-09-05T15:53:36.169Z,58.00
2022-09-05T15:56:19.016Z,57.00
2022-09-05T15:58:59.663Z,57.00
2022-09-05T16:01:59.889Z,55.50
2022-09-05T16:07:20.947Z,54.90
2022-09-05T16:10:44.906Z,55.70
2022-09-05T16:10:46.462Z,55.40
2022-09-05T16:13:18.808Z,56.30
2022-09-05T16:20:06.542Z,55.10
2022-09-05T16:23:32.506Z,53.40
2022-09-05T16:24:59.409Z,54.40
2022-09-05T16:27:53.383Z,55.60
2022-09-05T16:30:29.976Z,57.60
2022-09-05T16:33:03.535Z,56.80
2022-09-05T16:35:40.987Z,55.70
2022-09-05T16:38:36.600Z,55.70
2022-09-05T16:41:24.466Z,57.90
2022-09-05T16:44:03.600Z,61.10
2022-09-05T16:46:49.079Z,63.10
2022-09-05T16:49:41.500Z,64.00
2022-09-05T16:52:17.216Z,66.40
2022-09-05T16:55:28.489Z,66.70
2022-09-05T16:58:27.993Z,68.30
2022-09-05T17:01:25.081Z,70.30
2022-09-05T17:04:21.702Z,69.90
2022-09-05T17:06:55.108Z,70.80
2022-09-05T17:09:45.925Z,70.30
2022-09-05T17:12:21.925Z,70.90
2022-09-05T17:14:53.185Z,72.10
2022-09-05T17:18:19.969Z,73.00
2022-09-05T17:20:36.176Z,74.10
2022-09-05T17:29:15.649Z,74.30
2022-09-05T17:29:27.001Z,79.10
2022-09-05T17:29:27.606Z,76.60
2022-09-05T17:31:58.751Z,80.80
2022-09-05T17:34:54.369Z,81.30
2022-09-05T17:37:53.481Z,81.90
2022-09-05T17:40:45.155Z,81.70
2022-09-05T17:43:28.337Z,82.40
2022-09-05T17:46:24.248Z,82.20
2022-09-05T17:49:11.451Z,84.70
2022-09-05T17:51:51.037Z,86.80
2022-09-05T17:54:27.185Z,87.50
2022-09-05T17:56:56.358Z,88.50
2022-09-05T17:59:28.079Z,89.40
2022-09-05T18:02:10.139Z,89.90
2022-09-05T18:04:42.473Z,90.50
2022-09-05T18:07:30.368Z,91.10
2022-09-05T18:10:14.464Z,91.80
2022-09-05T18:15:58.460Z,93.20
2022-09-05T18:19:28.574Z,93.40
2022-09-05T18:21:25.043Z,94.00
2022-09-05T18:24:05.220Z,94.90
2022-09-05T18:26:40.723Z,95.50
2022-09-05T18:29:24.371Z,96.30
2022-09-05T18:32:11.228Z,97.10
2022-09-05T18:34:38.716Z,97.40
2022-09-05T18:37:36.448Z,97.80
2022-09-05T18:40:16.590Z,98.60
2022-09-05T18:42:57.485Z,99.50
2022-09-05T18:45:52.517Z,99.90
2022-09-05T18:48:29.592Z,99.90
2022-09-05T18:51:13.793Z,99.90
2022-09-05T18:53:47.722Z,99.90
2022-09-05T18:56:21.065Z,99.90
2022-09-05T18:59:23.927Z,99.90
2022-09-05T19:01:59.312Z,99.90
2022-09-05T19:04:49.772Z,99.90
2022-09-05T19:07:48.258Z,99.90
2022-09-05T19:10:34.593Z,99.90
2022-09-05T19:13:19.057Z,99.90
2022-09-05T19:16:44.136Z,99.90
2022-09-05T19:19:24.956Z,99.90
2022-09-05T19:22:49.990Z,99.90
2022-09-05T19:24:48.809Z,99.90
2022-09-05T19:30:27.039Z,99.90
2022-09-05T19:36:45.352Z,99.90
2022-09-05T19:37:05.475Z,99.90
2022-09-05T19:37:22.558Z,99.90
2022-09-05T19:44:00.506Z,99.90
2022-09-05T19:49:01.857Z,99.90
2022-09-05T19:51:28.933Z,99.90
2022-09-05T19:54:04.687Z,99.90
2022-09-05T19:56:45.045Z,99.90
2022-09-05T19:59:34.242Z,99.90
2022-09-05T20:02:20.166Z,99.90
2022-09-05T20:04:55.582Z,99.90
2022-09-05T20:07:30.446Z,99.90
2022-09-05T20:10:02.338Z,99.90
2022-09-05T20:12:43.656Z,99.90
2022-09-05T20:15:36.219Z,99.90
2022-09-05T20:18:31.141Z,99.90
2022-09-05T20:21:27.601Z,99.90
2022-09-05T20:23:55.998Z,99.90
2022-09-05T20:26:29.787Z,99.90
2022-09-05T20:29:54.744Z,99.90
2022-09-05T20:32:39.071Z,99.90
2022-09-05T20:39:43.741Z,99.90
2022-09-05T20:43:18.296Z,99.90
2022-09-05T20:43:30.868Z,99.90
2022-09-05T20:44:16.438Z,99.90
2022-09-05T20:54:06.488Z,99.90
2022-09-05T20:54:14.083Z,99.90
2022-09-05T20:54:23.024Z,99.90
2022-09-05T20:55:42.053Z,99.90
2022-09-05T20:58:12.494Z,99.90
2022-09-05T21:01:19.946Z,99.90
2022-09-05T21:03:39.102Z,99.90
2022-09-05T21:06:29.253Z,99.90
2022-09-05T21:09:12.435Z,99.90
2022-09-05T21:11:42.409Z,99.90
2022-09-05T21:14:10.604Z,99.90
2022-09-05T21:16:47.168Z,99.90
2022-09-05T21:19:29.880Z,99.90
2022-09-05T21:22:08.946Z,99.90
2022-09-05T21:24:40.651Z,99.90
2022-09-05T21:27:16.465Z,99.90
2022-09-05T21:29:43.877Z,99.90
2022-09-05T21:32:20.222Z,99.90
2022-09-05T21:34:53.440Z,99.90
2022-09-05T21:37:20.287Z,99.90
2022-09-05T21:39:59.223Z,99.90
2022-09-05T21:47:33.395Z,99.90
2022-09-05T21:47:40.480Z,99.90
2022-09-05T21:48:14.321Z,99.90
2022-09-05T21:50:49.415Z,99.90
2022-09-05T21:58:56.638Z,99.90
2022-09-05T21:59:18.876Z,99.90
2022-09-05T22:02:07.565Z,99.90
2022-09-05T22:04:41.125Z,99.90
2022-09-05T22:07:13.610Z,99.90
2022-09-05T22:09:40.346Z,99.90
2022-09-05T22:12:13.022Z,99.90
2022-09-05T22:14:54.978Z,99.90
2022-09-05T22:17:25.641Z,99.90
2022-09-05T22:19:53.523Z,99.90
2022-09-05T22:22:20.670Z,99.90
2022-09-05T22:24:54.434Z,99.90
2022-09-05T22:27:24.062Z,99.90
2022-09-05T22:29:55.276Z,99.90
2022-09-05T22:32:34.806Z,99.90
2022-09-05T22:35:27.528Z,99.90
2022-09-05T22:38:17.828Z,99.90
2022-09-05T22:40:49.377Z,99.90
2022-09-05T22:43:18.462Z,99.90
2022-09-05T22:45:45.207Z,99.90
2022-09-05T22:48:16.916Z,99.90
2022-09-05T22:50:44.098Z,99.90
2022-09-05T22:56:10.406Z,99.90
2022-09-05T22:58:38.226Z,99.90
2022-09-05T23:01:08.081Z,99.90
2022-09-05T23:03:34.865Z,99.90
2022-09-05T23:06:06.285Z,99.90
2022-09-05T23:08:35.448Z,99.90
2022-09-05T23:11:12.705Z,99.90
2022-09-05T23:13:40.391Z,99.90
2022-09-05T23:16:11.907Z,99.90
2022-09-05T23:18:43.612Z,99.90
2022-09-05T23:21:14.208Z,99.90
2022-09-05T23:23:41.363Z,99.90
2022-09-05T23:26:11.986Z,99.90
2022-09-05T23:28:43.063Z,99.90
2022-09-05T23:31:12.486Z,99.90
2022-09-05T23:33:41.081Z,99.90
2022-09-05T23:36:13.216Z,99.90
2022-09-05T23:38:43.833Z,99.90
2022-09-05T23:41:13.520Z,99.90
2022-09-05T23:43:40.433Z,99.90
2022-09-05T23:46:15.400Z,99.90
2022-09-05T23:48:45.600Z,99.90
2022-09-05T23:51:12.626Z,99.90
2022-09-05T23:53:42.298Z,99.90
2022-09-05T23:56:10.363Z,99.90
2022-09-05T23:58:37.924Z,99.90
